Time,TemperatureF,DewpointF,PressureIn,WindDirection,WindDirectionDegrees,WindSpeedMPH,WindSpeedGustMPH,Humidity,HourlyPrecipIn,Conditions,Clouds,dailyrainin,SoftwareType,DateUTC
2013-06-14 00:06:00,60.7,55.0,29.97,NNE,26,0.0,-999.0,80,-99.99,,,0.05,weatherlink.com 1.10,2013-06-14 05:06:00,
2013-06-14 00:21:00,60.4,54.0,29.96,NNE,17,0.0,-999.0,80,-99.99,,,0.05,weatherlink.com 1.10,2013-06-14 05:21:00,
2013-06-14 00:36:00,60.0,53.0,29.96,NNE,28,0.0,-999.0,79,-99.99,,,0.05,weatherlink.com 1.10,2013-06-14 05:36:00,
2013-06-14 00:52:00,59.8,53.0,29.95,NE,44,3.0,-999.0,79,-99.99,,,0.00,weatherlink.com 1.10,2013-06-14 05:52:00,
2013-06-14 01:07:00,59.6,53.0,29.96,NNE,27,2.0,-999.0,79,-99.99,,,0.00,weatherlink.com 1.10,2013-06-14 06:07:00,
2013-06-14 01:22:00,59.0,53.0,29.96,North,11,0.0,-999.0,80,-99.99,,,0.00,weatherlink.com 1.10,2013-06-14 06:22:00,
2013-06-14 01:37:00,58.7,53.0,29.95,North,355,0.0,-999.0,81,-99.99,,,0.00,weatherlink.com 1.10,2013-06-14 06:37:00,
2013-06-14 01:52:00,58.3,53.0,29.95,NNE,28,0.0,-999.0,82,-99.99,,,0.00,weatherlink.com 1.10,2013-06-14 06:52:00,
2013-06-14 02:08:00,58.0,53.0,29.95,NNW,348,0.0,-999.0,82,-99.99,,,0.00,weatherlink.com 1.10,2013-06-14 07:08:00,
2013-06-14 02:23:00,57.6,53.0,29.96,North,360,0.0,-999.0,83,-99.99,,,0.00,weatherlink.com 1.10,2013-06-14 07:23:00,
2013-06-14 02:38:00,57.1,53.0,29.96,NNE,16,0.0,-999.0,85,-99.99,,,0.00,weatherlink.com 1.10,2013-06-14 07:38:00,
2013-06-14 02:53:00,57.0,53.0,29.97,North,5,0.0,-999.0,85,-99.99,,,0.00,weatherlink.com 1.10,2013-06-14 07:53:00,
2013-06-14 03:08:00,56.7,53.0,29.97,NNW,337,0.0,-999.0,86,-99.99,,,0.00,weatherlink.com 1.10,2013-06-14 08:08:00,
2013-06-14 03:23:00,56.4,53.0,29.98,NW,324,0.0,-999.0,87,-99.99,,,0.00,weatherlink.com 1.10,2013-06-14 08:23:00,
2013-06-14 03:38:00,56.2,52.0,29.99,NNW,334,0.0,-999.0,87,-99.99,,,0.00,weatherlink.com 1.10,2013-06-14 08:38:00,
2013-06-14 03:53:00,55.9,52.0,29.99,NNW,331,0.0,-999.0,88,-99.99,,,0.00,weatherlink.com 1.10,2013-06-14 08:53:00,
2013-06-14 04:08:00,55.5,52.0,29.99,WNW,300,6.0,-999.0,89,-99.99,,,0.00,weatherlink.com 1.10,2013-06-14 09:08:00,
2013-06-14 04:23:00,55.4,52.0,30.00,NW,316,0.0,-999.0,89,-99.99,,,0.00,weatherlink.com 1.10,2013-06-14 09:23:00,
2013-06-14 04:38:00,55.4,52.0,30.00,North,355,0.0,-999.0,89,-99.99,,,0.00,weatherlink.com 1.10,2013-06-14 09:38:00,
2013-06-14 04:53:00,55.2,52.0,30.00,NW,311,0.0,-999.0,89,-99.99,,,0.00,weatherlink.com 1.10,2013-06-14 09:53:00,
2013-06-14 05:08:00,54.9,52.0,30.00,NE,51,0.0,-999.0,90,-99.99,,,0.00,weatherlink.com 1.10,2013-06-14 10:08:00,
2013-06-14 05:23:00,54.6,52.0,29.99,NE,39,0.0,-999.0,90,-99.99,,,0.00,weatherlink.com 1.10,2013-06-14 10:23:00,
2013-06-14 05:38:00,54.7,52.0,30.00,NNE,27,0.0,-999.0,91,-99.99,,,0.00,weatherlink.com 1.10,2013-06-14 10:38:00,
2013-06-14 05:53:00,54.8,52.0,30.01,NE,44,0.0,-999.0,91,-99.99,,,0.00,weatherlink.com 1.10,2013-06-14 10:53:00,
2013-06-14 06:08:00,54.9,52.0,30.02,NE,36,0.0,-999.0,91,-99.99,,,0.00,weatherlink.com 1.10,2013-06-14 11:08:00,
2013-06-14 06:23:00,55.4,53.0,30.01,NNE,27,0.0,-999.0,91,-99.99,,,0.00,weatherlink.com 1.10,2013-06-14 11:23:00,
2013-06-14 06:38:00,56.0,53.0,30.02,NNE,30,2.0,-999.0,90,-99.99,,,0.00,weatherlink.com 1.10,2013-06-14 11:38:00,
2013-06-14 06:53:00,56.5,53.0,30.02,NNE,29,0.0,-999.0,89,-99.99,,,0.00,weatherlink.com 1.10,2013-06-14 11:53:00,
2013-06-14 07:08:00,57.2,54.0,30.03,NE,46,0.0,-999.0,89,-99.99,,,0.00,weatherlink.com 1.10,2013-06-14 12:08:00,
2013-06-14 07:23:00,58.2,54.0,30.03,NW,320,0.0,-999.0,87,-99.99,,,0.00,weatherlink.com 1.10,2013-06-14 12:23:00,
2013-06-14 07:38:00,59.0,55.0,30.04,NNE,33,1.0,-999.0,86,-99.99,,,0.00,weatherlink.com 1.10,2013-06-14 12:38:00,
2013-06-14 07:53:00,59.5,55.0,30.04,NNE,14,0.0,-999.0,85,-99.99,,,0.00,weatherlink.com 1.10,2013-06-14 12:53:00,
2013-06-14 08:09:00,60.6,56.0,30.04,NE,38,0.0,-999.0,84,-99.99,,,0.00,weatherlink.com 1.10,2013-06-14 13:09:00,
2013-06-14 08:24:00,61.7,56.0,30.05,NNE,22,0.0,-999.0,82,-99.99,,,0.00,weatherlink.com 1.10,2013-06-14 13:24:00,
2013-06-14 08:39:00,62.7,57.0,30.06,North,9,0.0,-999.0,82,-99.99,,,0.00,weatherlink.com 1.10,2013-06-14 13:39:00,
2013-06-14 08:54:00,63.7,57.0,30.07,NNE,24,0.0,-999.0,80,-99.99,,,0.00,weatherlink.com 1.10,2013-06-14 13:54:00,
2013-06-14 09:09:00,64.4,57.0,30.07,NNE,21,0.0,-999.0,78,-99.99,,,0.00,weatherlink.com 1.10,2013-06-14 14:09:00,
2013-06-14 09:24:00,65.0,58.0,30.07,NNW,334,0.0,-999.0,78,-99.99,,,0.00,weatherlink.com 1.10,2013-06-14 14:24:00,
2013-06-14 09:39:00,66.4,58.0,30.07,NE,41,0.0,-999.0,75,-99.99,,,0.00,weatherlink.com 1.10,2013-06-14 14:39:00,
2013-06-14 09:54:00,68.0,59.0,30.07,NE,42,0.0,-999.0,74,-99.99,,,0.00,weatherlink.com 1.10,2013-06-14 14:54:00,
2013-06-14 10:09:00,69.0,60.0,30.06,ENE,58,0.0,-999.0,73,-99.99,,,0.00,weatherlink.com 1.10,2013-06-14 15:09:00,
2013-06-14 10:24:00,69.1,59.0,30.06,North,355,4.0,-999.0,71,-99.99,,,0.00,weatherlink.com 1.10,2013-06-14 15:24:00,
2013-06-14 10:39:00,69.7,59.0,30.06,NE,50,0.0,-999.0,68,-99.99,,,0.00,weatherlink.com 1.10,2013-06-14 15:39:00,
2013-06-14 10:54:00,71.3,60.0,30.06,NNE,17,0.0,-999.0,67,-99.99,,,0.00,weatherlink.com 1.10,2013-06-14 15:54:00,
2013-06-14 11:09:00,71.9,60.0,30.05,North,10,0.0,-999.0,66,-99.99,,,0.00,weatherlink.com 1.10,2013-06-14 16:09:00,
2013-06-14 11:24:00,72.8,57.0,30.05,NNE,12,0.0,-999.0,58,-99.99,,,0.00,weatherlink.com 1.10,2013-06-14 16:24:00,
2013-06-14 11:39:00,72.5,57.0,30.05,NNE,23,4.0,-999.0,58,-99.99,,,0.00,weatherlink.com 1.10,2013-06-14 16:39:00,
2013-06-14 11:54:00,72.7,59.0,30.04,NNE,30,0.0,-999.0,62,-99.99,,,0.00,weatherlink.com 1.10,2013-06-14 16:54:00,
2013-06-14 12:09:00,73.4,58.0,30.03,NNE,19,0.0,-999.0,58,-99.99,,,0.00,weatherlink.com 1.10,2013-06-14 17:09:00,
2013-06-14 12:25:00,74.9,58.0,30.02,NNE,16,0.0,-999.0,56,-99.99,,,0.00,weatherlink.com 1.10,2013-06-14 17:25:00,
2013-06-14 12:40:00,75.2,58.0,30.03,NE,37,3.0,-999.0,55,-99.99,,,0.00,weatherlink.com 1.10,2013-06-14 17:40:00,
2013-06-14 12:55:00,75.6,59.0,30.03,NNE,32,0.0,-999.0,57,-99.99,,,0.00,weatherlink.com 1.10,2013-06-14 17:55:00,
2013-06-14 13:10:00,76.0,59.0,30.04,ENE,58,0.0,-999.0,56,-99.99,,,0.00,weatherlink.com 1.10,2013-06-14 18:10:00,
2013-06-14 13:25:00,76.4,58.0,30.04,North,9,0.0,-999.0,54,-99.99,,,0.00,weatherlink.com 1.10,2013-06-14 18:25:00,
2013-06-14 13:40:00,77.4,60.0,30.04,NNE,13,0.0,-999.0,55,-99.99,,,0.00,weatherlink.com 1.10,2013-06-14 18:40:00,
2013-06-14 13:55:00,77.0,60.0,30.03,NNE,31,0.0,-999.0,55,-99.99,,,0.00,weatherlink.com 1.10,2013-06-14 18:55:00,
2013-06-14 14:10:00,78.5,60.0,30.04,NE,36,6.0,-999.0,54,-99.99,,,0.00,weatherlink.com 1.10,2013-06-14 19:10:00,
2013-06-14 14:25:00,78.4,60.0,30.04,NE,34,0.0,-999.0,53,-99.99,,,0.00,weatherlink.com 1.10,2013-06-14 19:25:00,
2013-06-14 14:40:00,78.4,58.0,30.03,NW,319,0.0,-999.0,50,-99.99,,,0.00,weatherlink.com 1.10,2013-06-14 19:40:00,
2013-06-14 14:55:00,79.1,59.0,30.03,SE,124,4.0,-999.0,50,-99.99,,,0.00,weatherlink.com 1.10,2013-06-14 19:55:00,
2013-06-14 15:09:00,79.2,60.0,30.03,NNE,28,0.0,-999.0,52,-99.99,,,0.00,weatherlink.com 1.10,2013-06-14 20:09:00,
2013-06-14 15:24:00,79.4,59.0,30.02,WSW,240,0.0,-999.0,50,-99.99,,,0.00,weatherlink.com 1.10,2013-06-14 20:24:00,
2013-06-14 15:40:00,79.4,59.0,30.01,ESE,118,4.0,-999.0,50,-99.99,,,0.00,weatherlink.com 1.10,2013-06-14 20:40:00,
2013-06-14 15:55:00,79.8,58.0,30.01,ESE,109,1.0,-999.0,47,-99.99,,,0.00,weatherlink.com 1.10,2013-06-14 20:55:00,
2013-06-14 16:10:00,79.6,58.0,30.00,SE,128,0.0,-999.0,48,-99.99,,,0.00,weatherlink.com 1.10,2013-06-14 21:10:00,
2013-06-14 16:25:00,79.4,59.0,30.01,SSE,149,0.0,-999.0,49,-99.99,,,0.00,weatherlink.com 1.10,2013-06-14 21:25:00,
2013-06-14 16:40:00,80.3,58.0,30.00,NE,50,0.0,-999.0,46,-99.99,,,0.00,weatherlink.com 1.10,2013-06-14 21:40:00,
2013-06-14 16:55:00,80.5,59.0,29.99,SE,132,0.0,-999.0,48,-99.99,,,0.00,weatherlink.com 1.10,2013-06-14 21:55:00,
2013-06-14 17:10:00,79.3,58.0,29.99,NNW,331,0.0,-999.0,48,-99.99,,,0.00,weatherlink.com 1.10,2013-06-14 22:10:00,
2013-06-14 17:25:00,79.5,59.0,29.98,NE,46,0.0,-999.0,50,-99.99,,,0.00,weatherlink.com 1.10,2013-06-14 22:25:00,
2013-06-14 17:40:00,79.6,59.0,29.97,East,89,0.0,-999.0,49,-99.99,,,0.00,weatherlink.com 1.10,2013-06-14 22:40:00,
2013-06-14 17:55:00,79.2,59.0,29.96,ENE,71,0.0,-999.0,51,-99.99,,,0.00,weatherlink.com 1.10,2013-06-14 22:55:00,
2013-06-14 18:10:00,79.6,59.0,29.97,ENE,68,0.0,-999.0,50,-99.99,,,0.00,weatherlink.com 1.10,2013-06-14 23:10:00,
2013-06-14 18:25:00,79.6,59.0,29.97,ESE,121,0.0,-999.0,50,-99.99,,,0.00,weatherlink.com 1.10,2013-06-14 23:25:00,
2013-06-14 18:40:00,79.6,59.0,29.97,ESE,113,0.0,-999.0,50,-99.99,,,0.00,weatherlink.com 1.10,2013-06-14 23:40:00,
2013-06-14 18:55:00,78.9,58.0,29.96,East,94,0.0,-999.0,49,-99.99,,,0.00,weatherlink.com 1.10,2013-06-14 23:55:00,
2013-06-14 19:10:00,78.1,58.0,29.96,SE,146,0.0,-999.0,51,-99.99,,,0.00,weatherlink.com 1.10,2013-06-15 00:10:00,
2013-06-14 19:25:00,77.0,58.0,29.96,East,94,0.0,-999.0,53,-99.99,,,0.00,weatherlink.com 1.10,2013-06-15 00:25:00,
2013-06-14 19:40:00,76.2,59.0,29.97,ESE,115,0.0,-999.0,55,-99.99,,,0.00,weatherlink.com 1.10,2013-06-15 00:40:00,
2013-06-14 19:55:00,75.4,58.0,29.96,East,96,0.0,-999.0,56,-99.99,,,0.00,weatherlink.com 1.10,2013-06-15 00:55:00,
2013-06-14 20:10:00,74.7,59.0,29.97,ESE,121,0.0,-999.0,59,-99.99,,,0.00,weatherlink.com 1.10,2013-06-15 01:10:00,
2013-06-14 20:25:00,74.2,59.0,29.97,SE,132,0.0,-999.0,60,-99.99,,,0.00,weatherlink.com 1.10,2013-06-15 01:25:00,
2013-06-14 20:40:00,73.5,59.0,29.98,SE,132,0.0,-999.0,61,-99.99,,,0.00,weatherlink.com 1.10,2013-06-15 01:40:00,
2013-06-14 20:55:00,73.0,59.0,29.98,SE,132,0.0,-999.0,62,-99.99,,,0.00,weatherlink.com 1.10,2013-06-15 01:55:00,
2013-06-14 21:11:00,72.1,60.0,29.98,SE,132,0.0,-999.0,65,-99.99,,,0.00,weatherlink.com 1.10,2013-06-15 02:11:00,
2013-06-14 21:26:00,71.1,60.0,29.98,SE,132,0.0,-999.0,67,-99.99,,,0.00,weatherlink.com 1.10,2013-06-15 02:26:00,
2013-06-14 21:41:00,70.6,59.0,29.99,SE,132,0.0,-999.0,67,-99.99,,,0.00,weatherlink.com 1.10,2013-06-15 02:41:00,
2013-06-14 21:56:00,70.2,60.0,29.99,SE,132,0.0,-999.0,69,-99.99,,,0.00,weatherlink.com 1.10,2013-06-15 02:56:00,
2013-06-14 22:10:00,69.7,59.0,30.00,SE,132,0.0,-999.0,69,-99.99,,,0.00,weatherlink.com 1.10,2013-06-15 03:10:00,
2013-06-14 22:25:00,69.9,59.0,30.00,SE,132,0.0,-999.0,69,-99.99,,,0.00,weatherlink.com 1.10,2013-06-15 03:25:00,
2013-06-14 22:40:00,70.0,59.0,29.98,SE,132,0.0,-999.0,69,-99.99,,,0.00,weatherlink.com 1.10,2013-06-15 03:40:00,
2013-06-14 22:55:00,69.7,60.0,29.99,SE,132,0.0,-999.0,70,-99.99,,,0.00,weatherlink.com 1.10,2013-06-15 03:55:00,
2013-06-14 23:11:00,69.2,59.0,29.99,SE,132,0.0,-999.0,71,-99.99,,,0.00,weatherlink.com 1.10,2013-06-15 04:11:00,
2013-06-14 23:26:00,68.6,59.0,29.99,SE,132,0.0,-999.0,72,-99.99,,,0.00,weatherlink.com 1.10,2013-06-15 04:26:00,
2013-06-14 23:41:00,68.1,60.0,29.99,SE,132,0.0,-999.0,74,-99.99,,,0.00,weatherlink.com 1.10,2013-06-15 04:41:00,
2013-06-14 23:56:00,67.6,59.0,29.99,SE,132,0.0,-999.0,74,-99.99,,,0.00,weatherlink.com 1.10,2013-06-15 04:56:00,